createdAt,value
2019-04-04T00:01:37.596Z,97892.96
2019-04-04T00:06:43.205Z,97870.27
2019-04-04T00:11:48.849Z,97848.78
2019-04-04T00:16:54.355Z,97824.53
2019-04-04T00:22:00.105Z,97842.21
2019-04-04T00:27:05.805Z,97829.13
2019-04-04T00:32:11.313Z,97833.38
2019-04-04T00:37:16.902Z,97807.17
2019-04-04T00:47:37.253Z,97792.63
2019-04-04T00:52:42.925Z,97794.43
2019-04-04T00:57:50.376Z,97780.19
2019-04-04T01:02:58.278Z,97761.75
2019-04-04T01:13:40.689Z,97753.19
2019-04-04T01:18:46.035Z,97737.70
2019-04-04T01:23:51.451Z,97720.04
2019-04-04T01:28:56.860Z,97716.92
2019-04-04T01:39:19.335Z,97689.41
2019-04-04T01:44:24.707Z,97670.17
2019-04-04T01:49:30.269Z,97664.83
2019-04-04T01:54:35.566Z,97642.12
2019-04-04T01:59:41.988Z,97629.12
2019-04-04T02:04:48.116Z,97620.02
2019-04-04T02:09:53.566Z,97606.66
2019-04-04T02:14:58.965Z,97590.07
2019-04-04T02:20:04.942Z,97584.30
2019-04-04T02:25:10.703Z,97584.22
2019-04-04T02:30:16.614Z,97566.53
2019-04-04T02:35:22.223Z,97564.60
2019-04-04T02:40:27.837Z,97548.78
2019-04-04T02:45:33.318Z,97544.81
2019-04-04T02:50:40.414Z,97528.01
2019-04-04T02:55:45.841Z,97522.27
2019-04-04T03:00:51.229Z,97518.22
2019-04-04T03:05:56.796Z,97505.73
2019-04-04T03:11:02.437Z,97498.39
2019-04-04T03:16:07.923Z,97479.61
2019-04-04T03:21:13.411Z,97467.30
2019-04-04T03:26:20.044Z,97459.97
2019-04-04T03:31:26.748Z,97439.03
2019-04-04T03:36:33.866Z,97443.38
2019-04-04T03:41:39.370Z,97434.39
2019-04-04T03:46:44.817Z,97427.28
2019-04-04T03:51:50.238Z,97412.67
2019-04-04T03:56:55.637Z,97408.55
2019-04-04T04:02:01.046Z,97400.05
2019-04-04T04:07:06.415Z,97396.38
2019-04-04T04:12:11.931Z,97377.34
2019-04-04T04:17:17.338Z,97370.58
2019-04-04T04:22:22.866Z,97372.70
2019-04-04T04:27:28.258Z,97362.77
2019-04-04T04:32:37.095Z,97355.45
2019-04-04T04:37:40.794Z,97335.77
2019-04-04T04:42:46.245Z,97336.67
2019-04-04T04:47:56.099Z,97325.12
2019-04-04T04:52:58.898Z,97313.80
2019-04-04T04:58:04.321Z,97300.14
2019-04-04T05:03:09.871Z,97304.81
2019-04-04T05:08:15.211Z,97308.85
2019-04-04T05:13:20.661Z,97298.27
2019-04-04T05:18:26.845Z,97287.73
2019-04-04T05:23:32.403Z,97287.03
2019-04-04T05:28:37.722Z,97290.30
2019-04-04T05:33:43.369Z,97284.02
2019-04-04T05:38:48.898Z,97276.16
2019-04-04T05:43:54.330Z,97283.06
2019-04-04T05:49:04.476Z,97271.73
2019-04-04T05:54:07.652Z,97279.58
2019-04-04T05:59:13.925Z,97282.83
2019-04-04T06:04:20.174Z,97274.56
2019-04-04T06:09:26.270Z,97267.16
2019-04-04T06:14:31.681Z,97267.77
2019-04-04T06:19:37.466Z,97255.63
2019-04-04T06:24:42.925Z,97260.42
2019-04-04T06:29:48.450Z,97261.57
2019-04-04T06:34:56.585Z,97260.40
2019-04-04T06:40:01.017Z,97250.77
2019-04-04T06:45:07.255Z,97250.97
2019-04-04T06:50:12.852Z,97251.14
2019-04-04T06:55:18.165Z,97258.21
2019-04-04T07:00:23.500Z,97241.50
2019-04-04T07:05:28.909Z,97243.31
2019-04-04T07:10:34.351Z,97246.41
2019-04-04T07:15:46.691Z,97243.58
2019-04-04T07:20:48.421Z,97235.22
2019-04-04T07:25:54.028Z,97236.95
2019-04-04T07:31:01.745Z,97228.52
2019-04-04T07:36:06.638Z,97225.45
2019-04-04T07:41:14.591Z,97232.47
2019-04-04T07:46:19.115Z,97228.64
2019-04-04T07:51:24.732Z,97224.52
2019-04-04T07:56:30.170Z,97225.75
2019-04-04T08:01:50.261Z,97213.24
2019-04-04T08:06:44.899Z,97217.19
2019-04-04T08:11:50.370Z,97211.95
2019-04-04T08:16:55.923Z,97209.06
2019-04-04T08:22:01.765Z,97205.41
2019-04-04T08:27:07.174Z,97205.21
2019-04-04T08:32:14.786Z,97200.39
2019-04-04T08:37:20.132Z,97204.02
2019-04-04T08:42:25.694Z,97200.83
2019-04-04T08:47:31.265Z,97199.78
2019-04-04T08:52:36.734Z,97195.33
2019-04-04T08:57:43.989Z,97198.15
2019-04-04T09:02:49.369Z,97206.00
2019-04-04T09:07:56.237Z,97203.95
2019-04-04T09:13:01.646Z,97209.16
2019-04-04T09:18:07.272Z,97205.91
2019-04-04T09:23:12.692Z,97206.23
2019-04-04T09:28:20.086Z,97209.45
2019-04-04T09:33:25.523Z,97211.31
2019-04-04T09:38:30.975Z,97213.41
2019-04-04T09:43:36.396Z,97203.98
2019-04-04T09:48:42.280Z,97212.50
2019-04-04T09:53:53.159Z,97216.29
2019-04-04T09:58:55.236Z,97217.45
2019-04-04T10:04:00.941Z,97214.52
2019-04-04T10:09:15.724Z,97209.81
2019-04-04T10:14:18.381Z,97215.77
2019-04-04T10:19:23.820Z,97212.23
2019-04-04T10:24:29.240Z,97209.81
2019-04-04T10:29:34.707Z,97209.79
2019-04-04T10:34:40.501Z,97209.69
2019-04-04T10:39:46.161Z,97203.96
2019-04-04T10:44:51.560Z,97210.39
2019-04-04T10:49:58.504Z,97204.72
2019-04-04T10:55:04.381Z,97201.34
2019-04-04T11:00:11.740Z,97203.05
2019-04-04T11:05:17.521Z,97204.42
2019-04-04T11:10:23.060Z,97218.91
2019-04-04T11:15:31.002Z,97210.96
2019-04-04T11:20:36.563Z,97214.55
2019-04-04T11:25:42.140Z,97216.92
2019-04-04T11:30:47.567Z,97225.14
2019-04-04T11:35:53.060Z,97223.55
2019-04-04T11:41:01.403Z,97224.84
2019-04-04T11:46:07.143Z,97215.50
2019-04-04T11:51:12.870Z,97215.92
2019-04-04T11:56:18.364Z,97215.72
2019-04-04T12:01:24.581Z,97225.51
2019-04-04T12:06:30.121Z,97233.08
2019-04-04T12:11:35.644Z,97230.14
2019-04-04T12:16:41.037Z,97238.70
2019-04-04T12:21:49.314Z,97232.05
2019-04-04T12:26:54.770Z,97235.41
2019-04-04T12:32:00.238Z,97237.52
2019-04-04T12:37:05.897Z,97239.08
2019-04-04T12:42:11.520Z,97234.79
2019-04-04T12:47:17.312Z,97239.64
2019-04-04T12:52:22.860Z,97246.19
2019-04-04T12:57:31.309Z,97253.84
2019-04-04T13:02:36.848Z,97244.73
2019-04-04T13:07:42.253Z,97244.87
2019-04-04T13:12:48.162Z,97256.98
2019-04-04T13:17:53.660Z,97252.38
2019-04-04T13:22:59.175Z,97245.43
2019-04-04T13:28:04.989Z,97236.07
2019-04-04T13:33:10.861Z,97233.74
2019-04-04T13:38:16.523Z,97242.77
2019-04-04T13:43:22.680Z,97238.23
2019-04-04T13:48:28.681Z,97244.09
2019-04-04T13:53:34.363Z,97247.38
2019-04-04T13:58:39.838Z,97254.90
2019-04-04T14:03:45.641Z,97260.61
2019-04-04T14:08:53.940Z,97266.72
2019-04-04T14:13:59.348Z,97280.34
2019-04-04T14:19:04.928Z,97271.39
2019-04-04T14:24:13.879Z,97259.60
2019-04-04T14:29:27.328Z,97268.69
2019-04-04T14:34:27.780Z,97252.83
2019-04-04T14:39:33.370Z,97256.72
2019-04-04T14:44:39.004Z,97268.30
2019-04-04T14:49:45.905Z,97266.07
2019-04-04T14:54:51.940Z,97268.91
2019-04-04T14:59:57.500Z,97258.27
2019-04-04T15:05:03.165Z,97263.28
2019-04-04T15:10:11.061Z,97270.19
2019-04-04T15:15:16.685Z,97270.09
2019-04-04T15:20:22.213Z,97275.67
2019-04-04T15:25:28.485Z,97284.48
2019-04-04T15:30:34.261Z,97287.39
2019-04-04T15:35:39.821Z,97289.00
2019-04-04T15:40:45.443Z,97286.55
2019-04-04T15:45:50.900Z,97289.44
2019-04-04T15:50:56.521Z,97301.87
2019-04-04T15:56:04.941Z,97310.35
2019-04-04T16:01:10.441Z,97309.22
2019-04-04T16:06:16.520Z,97312.48
2019-04-04T16:11:22.000Z,97310.00
2019-04-04T16:16:27.661Z,97301.95
2019-04-04T16:21:33.642Z,97304.71
2019-04-04T16:26:39.283Z,97307.77
2019-04-04T16:31:44.962Z,97314.45
2019-04-04T16:36:51.001Z,97317.74
2019-04-04T16:42:02.447Z,97322.35
2019-04-04T16:47:04.803Z,97324.91
2019-04-04T16:52:12.540Z,97326.09
2019-04-04T16:57:18.466Z,97339.33
2019-04-04T17:02:24.220Z,97350.77
2019-04-04T17:07:29.842Z,97344.23
2019-04-04T17:12:35.440Z,97344.33
2019-04-04T17:17:40.993Z,97345.45
2019-04-04T17:22:46.541Z,97350.28
2019-04-04T17:27:52.287Z,97345.77
2019-04-04T17:32:58.137Z,97357.46
2019-04-04T17:38:03.885Z,97361.72
2019-04-04T17:43:09.601Z,97371.66
2019-04-04T17:48:15.378Z,97380.02
2019-04-04T17:53:21.881Z,97384.05
2019-04-04T17:58:28.622Z,97387.06
2019-04-04T18:03:34.301Z,97390.11
2019-04-04T18:08:40.039Z,97393.36
2019-04-04T18:13:48.800Z,97393.36
2019-04-04T18:18:55.380Z,97393.73
2019-04-04T18:24:00.839Z,97395.44
2019-04-04T18:29:06.560Z,97390.36
2019-04-04T18:34:12.143Z,97395.58
2019-04-04T18:39:17.729Z,97402.24
2019-04-04T18:44:23.320Z,97406.47
2019-04-04T18:49:28.962Z,97410.80
2019-04-04T18:54:34.462Z,97414.63
2019-04-04T18:59:40.022Z,97420.34
2019-04-04T19:04:45.703Z,97411.39
2019-04-04T19:09:51.062Z,97426.56
2019-04-04T19:14:56.843Z,97435.28
2019-04-04T19:20:02.222Z,97442.31
2019-04-04T19:25:08.300Z,97446.37
2019-04-04T19:30:18.580Z,97457.42
2019-04-04T19:35:24.301Z,97464.03
2019-04-04T19:40:29.895Z,97460.64
2019-04-04T19:45:35.681Z,97470.30
2019-04-04T19:50:41.560Z,97470.91
2019-04-04T19:55:47.101Z,97482.17
2019-04-04T20:00:54.077Z,97482.28
2019-04-04T20:05:59.658Z,97484.13
2019-04-04T20:11:05.281Z,97484.84
2019-04-04T20:16:12.319Z,97492.00
2019-04-04T20:21:18.117Z,97491.07
2019-04-04T20:26:23.635Z,97496.41
2019-04-04T20:31:29.141Z,97492.91
2019-04-04T20:36:34.641Z,97496.03
2019-04-04T20:41:40.160Z,97493.76
2019-04-04T20:46:45.680Z,97493.76
2019-04-04T20:51:51.230Z,97499.95
2019-04-04T20:56:56.800Z,97496.22
2019-04-04T21:02:02.361Z,97499.40
2019-04-04T21:07:07.870Z,97493.97
2019-04-04T21:12:13.482Z,97493.08
2019-04-04T21:17:19.461Z,97493.90
2019-04-04T21:22:27.694Z,97493.13
2019-04-04T21:27:32.397Z,97495.39
2019-04-04T21:32:37.961Z,97494.88
2019-04-04T21:37:43.461Z,97497.40
2019-04-04T21:42:49.001Z,97495.25
2019-04-04T21:47:54.540Z,97494.47
2019-04-04T21:52:59.962Z,97496.86
2019-04-04T21:58:05.525Z,97493.08
2019-04-04T22:03:11.341Z,97499.28
2019-04-04T22:08:16.801Z,97499.34
2019-04-04T22:13:22.201Z,97507.68
2019-04-04T22:18:27.582Z,97499.03
2019-04-04T22:23:33.200Z,97497.42
2019-04-04T22:28:38.699Z,97494.05
2019-04-04T22:33:44.102Z,97497.81
2019-04-04T22:38:49.541Z,97506.90
2019-04-04T22:44:03.410Z,97506.81
2019-04-04T22:49:02.402Z,97508.92
2019-04-04T22:54:07.941Z,97505.56
2019-04-04T22:59:13.348Z,97504.48
2019-04-04T23:04:18.738Z,97498.21
2019-04-04T23:09:24.225Z,97500.85
2019-04-04T23:14:29.698Z,97502.52
2019-04-04T23:19:35.150Z,97497.38
2019-04-04T23:24:40.500Z,97497.53
2019-04-04T23:29:45.875Z,97504.25
2019-04-04T23:34:51.354Z,97508.84
2019-04-04T23:39:56.767Z,97510.83
2019-04-04T23:50:19.661Z,97509.61
2019-04-04T23:55:25.025Z,97513.28
